North Industry, Ohio
Current Conditions -  °F | °C
As of 10:51 AM on Tuesday 27 Jan 2015 (Local Time) from KCAK Reporting Station
Light Snow Light Snow  
Wind Chill:   Ceiling: 2400
Heat Index: 19°   Visibility: 7mi
Dew Point: 11°   Wind: 12mph
Humidity: 71%   Direction: 350°N
Pressure: 29.99"   Gusts: NA
Location:  40.7612°N, 81.35°W
Report Text: KCAK 271551Z 35010KT 7SM -SN BKN024 OVC220 M07/M12 A2999 RMK AO2 SNB31 SLP176 P0000 T10721117 $
Loading
Personal Weather Stations






























Interactive Weather Map New forecast layout! Learn more

10-Day Weather Forecast

Advertisements
Track Severe Weather on mobile